sensor_id;sensor_type;location;lat;lon;timestamp;temperature;humidity
73252;DHT22;61473;50.834;4.552;2022-07-23T00:00:58;25.30;59.00
73252;DHT22;61473;50.834;4.552;2022-07-23T00:03:24;25.30;59.00
73252;DHT22;61473;50.834;4.552;2022-07-23T00:05:50;25.40;59.20
73252;DHT22;61473;50.834;4.552;2022-07-23T00:08:15;25.30;59.80
73252;DHT22;61473;50.834;4.552;2022-07-23T00:10:41;25.30;59.20
73252;DHT22;61473;50.834;4.552;2022-07-23T00:13:07;25.30;59.20
73252;DHT22;61473;50.834;4.552;2022-07-23T00:15:33;25.30;59.20
73252;DHT22;61473;50.834;4.552;2022-07-23T00:17:58;25.30;59.30
73252;DHT22;61473;50.834;4.552;2022-07-23T00:20:24;25.30;59.30
73252;DHT22;61473;50.834;4.552;2022-07-23T00:22:51;25.30;59.30
73252;DHT22;61473;50.834;4.552;2022-07-23T00:25:17;25.30;59.30
73252;DHT22;61473;50.834;4.552;2022-07-23T00:27:43;25.30;59.30
73252;DHT22;61473;50.834;4.552;2022-07-23T00:30:10;25.30;59.30
73252;DHT22;61473;50.834;4.552;2022-07-23T00:32:49;25.30;59.30
73252;DHT22;61473;50.834;4.552;2022-07-23T00:35:16;25.30;59.40
73252;DHT22;61473;50.834;4.552;2022-07-23T00:37:44;25.30;59.40
73252;DHT22;61473;50.834;4.552;2022-07-23T00:40:10;25.20;59.40
73252;DHT22;61473;50.834;4.552;2022-07-23T00:42:36;25.30;59.40
73252;DHT22;61473;50.834;4.552;2022-07-23T00:45:02;25.20;59.40
73252;DHT22;61473;50.834;4.552;2022-07-23T00:47:28;25.30;59.50
73252;DHT22;61473;50.834;4.552;2022-07-23T00:49:54;25.20;59.40
73252;DHT22;61473;50.834;4.552;2022-07-23T00:52:19;25.20;59.50
73252;DHT22;61473;50.834;4.552;2022-07-23T00:54:45;25.30;59.50
73252;DHT22;61473;50.834;4.552;2022-07-23T00:57:11;25.30;59.50
73252;DHT22;61473;50.834;4.552;2022-07-23T00:59:38;25.20;59.50
73252;DHT22;61473;50.834;4.552;2022-07-23T01:02:04;25.20;59.50
73252;DHT22;61473;50.834;4.552;2022-07-23T01:04:30;25.20;59.40
73252;DHT22;61473;50.834;4.552;2022-07-23T01:06:55;25.20;59.50
73252;DHT22;61473;50.834;4.552;2022-07-23T01:09:21;25.20;59.50
73252;DHT22;61473;50.834;4.552;2022-07-23T01:11:47;25.20;59.50
73252;DHT22;61473;50.834;4.552;2022-07-23T01:14:15;25.20;59.50
73252;DHT22;61473;50.834;4.552;2022-07-23T01:16:42;25.20;59.50
73252;DHT22;61473;50.834;4.552;2022-07-23T01:19:10;25.20;59.50
73252;DHT22;61473;50.834;4.552;2022-07-23T01:21:43;25.20;59.50
73252;DHT22;61473;50.834;4.552;2022-07-23T01:24:10;25.20;59.50
73252;DHT22;61473;50.834;4.552;2022-07-23T01:26:37;25.20;60.20
73252;DHT22;61473;50.834;4.552;2022-07-23T01:29:04;25.20;59.50
73252;DHT22;61473;50.834;4.552;2022-07-23T01:31:30;25.20;59.50
73252;DHT22;61473;50.834;4.552;2022-07-23T01:33:56;25.20;59.50
73252;DHT22;61473;50.834;4.552;2022-07-23T01:36:22;25.20;59.60
73252;DHT22;61473;50.834;4.552;2022-07-23T01:38:48;25.20;59.60
73252;DHT22;61473;50.834;4.552;2022-07-23T01:41:14;25.20;59.60
73252;DHT22;61473;50.834;4.552;2022-07-23T01:43:39;25.20;59.60
73252;DHT22;61473;50.834;4.552;2022-07-23T01:46:05;25.20;59.60
73252;DHT22;61473;50.834;4.552;2022-07-23T01:48:31;25.20;59.60
73252;DHT22;61473;50.834;4.552;2022-07-23T01:50:57;25.20;59.70
73252;DHT22;61473;50.834;4.552;2022-07-23T01:53:22;25.20;59.70
73252;DHT22;61473;50.834;4.552;2022-07-23T01:55:48;25.20;59.70
73252;DHT22;61473;50.834;4.552;2022-07-23T01:58:14;25.20;59.70
73252;DHT22;61473;50.834;4.552;2022-07-23T02:00:39;25.20;59.70
73252;DHT22;61473;50.834;4.552;2022-07-23T02:03:05;25.20;59.70
73252;DHT22;61473;50.834;4.552;2022-07-23T02:05:31;25.20;59.70
73252;DHT22;61473;50.834;4.552;2022-07-23T02:08:00;25.20;59.70
73252;DHT22;61473;50.834;4.552;2022-07-23T02:10:26;25.20;59.70
73252;DHT22;61473;50.834;4.552;2022-07-23T02:12:52;25.20;59.70
73252;DHT22;61473;50.834;4.552;2022-07-23T02:15:17;25.20;59.70
73252;DHT22;61473;50.834;4.552;2022-07-23T02:17:43;25.20;59.70
73252;DHT22;61473;50.834;4.552;2022-07-23T02:20:10;25.20;59.70
73252;DHT22;61473;50.834;4.552;2022-07-23T02:22:36;25.20;59.70
73252;DHT22;61473;50.834;4.552;2022-07-23T02:25:03;25.20;59.70
73252;DHT22;61473;50.834;4.552;2022-07-23T02:27:29;25.20;59.70
73252;DHT22;61473;50.834;4.552;2022-07-23T02:29:55;25.20;59.70
73252;DHT22;61473;50.834;4.552;2022-07-23T02:32:20;25.20;59.70
73252;DHT22;61473;50.834;4.552;2022-07-23T02:34:49;25.20;59.80
73252;DHT22;61473;50.834;4.552;2022-07-23T02:37:16;25.10;59.60
73252;DHT22;61473;50.834;4.552;2022-07-23T02:39:42;25.20;59.70
73252;DHT22;61473;50.834;4.552;2022-07-23T02:42:07;25.10;59.60
73252;DHT22;61473;50.834;4.552;2022-07-23T02:44:33;25.10;59.60
73252;DHT22;61473;50.834;4.552;2022-07-23T02:46:59;25.10;59.60
73252;DHT22;61473;50.834;4.552;2022-07-23T02:49:24;25.20;59.60
73252;DHT22;61473;50.834;4.552;2022-07-23T02:51:50;25.20;59.70
73252;DHT22;61473;50.834;4.552;2022-07-23T02:54:16;25.10;59.60
73252;DHT22;61473;50.834;4.552;2022-07-23T02:56:41;25.10;59.60
73252;DHT22;61473;50.834;4.552;2022-07-23T02:59:07;25.20;59.60
73252;DHT22;61473;50.834;4.552;2022-07-23T03:01:33;25.10;59.60
73252;DHT22;61473;50.834;4.552;2022-07-23T03:03:58;25.10;59.50
73252;DHT22;61473;50.834;4.552;2022-07-23T03:06:24;25.10;59.50
73252;DHT22;61473;50.834;4.552;2022-07-23T03:08:50;25.20;59.50
73252;DHT22;61473;50.834;4.552;2022-07-23T03:11:15;25.10;59.50
73252;DHT22;61473;50.834;4.552;2022-07-23T03:13:41;25.10;59.50
73252;DHT22;61473;50.834;4.552;2022-07-23T03:16:07;25.10;59.50
73252;DHT22;61473;50.834;4.552;2022-07-23T03:18:33;25.10;59.50
73252;DHT22;61473;50.834;4.552;2022-07-23T03:21:00;25.10;59.50
73252;DHT22;61473;50.834;4.552;2022-07-23T03:23:26;25.10;59.50
73252;DHT22;61473;50.834;4.552;2022-07-23T03:25:52;25.10;59.50
73252;DHT22;61473;50.834;4.552;2022-07-23T03:28:18;25.10;59.50
73252;DHT22;61473;50.834;4.552;2022-07-23T03:30:45;25.10;59.50
73252;DHT22;61473;50.834;4.552;2022-07-23T03:33:15;25.10;59.50
73252;DHT22;61473;50.834;4.552;2022-07-23T03:35:42;25.10;59.60
73252;DHT22;61473;50.834;4.552;2022-07-23T03:38:08;25.10;59.60
73252;DHT22;61473;50.834;4.552;2022-07-23T03:40:33;25.10;59.60
73252;DHT22;61473;50.834;4.552;2022-07-23T03:42:59;25.10;59.60
73252;DHT22;61473;50.834;4.552;2022-07-23T03:45:25;25.10;59.60
73252;DHT22;61473;50.834;4.552;2022-07-23T03:47:50;25.10;59.50
73252;DHT22;61473;50.834;4.552;2022-07-23T03:50:16;25.10;59.60
73252;DHT22;61473;50.834;4.552;2022-07-23T03:52:42;25.10;59.60
73252;DHT22;61473;50.834;4.552;2022-07-23T03:55:08;25.10;59.60
73252;DHT22;61473;50.834;4.552;2022-07-23T03:57:33;25.10;59.50
73252;DHT22;61473;50.834;4.552;2022-07-23T03:59:59;25.10;59.50
73252;DHT22;61473;50.834;4.552;2022-07-23T04:02:25;25.10;59.50
73252;DHT22;61473;50.834;4.552;2022-07-23T04:04:51;25.00;59.50
73252;DHT22;61473;50.834;4.552;2022-07-23T04:07:16;25.10;59.50
73252;DHT22;61473;50.834;4.552;2022-07-23T04:09:44;25.10;59.50
73252;DHT22;61473;50.834;4.552;2022-07-23T04:12:09;25.10;59.50
73252;DHT22;61473;50.834;4.552;2022-07-23T04:14:35;25.10;59.50
73252;DHT22;61473;50.834;4.552;2022-07-23T04:17:01;25.10;60.10
73252;DHT22;61473;50.834;4.552;2022-07-23T04:19:27;25.10;59.50
73252;DHT22;61473;50.834;4.552;2022-07-23T04:21:52;25.10;59.40
73252;DHT22;61473;50.834;4.552;2022-07-23T04:24:18;25.10;59.40
73252;DHT22;61473;50.834;4.552;2022-07-23T04:26:45;25.10;60.00
73252;DHT22;61473;50.834;4.552;2022-07-23T04:29:11;25.10;59.30
73252;DHT22;61473;50.834;4.552;2022-07-23T04:31:36;25.10;59.30
73252;DHT22;61473;50.834;4.552;2022-07-23T04:34:02;25.10;59.30
73252;DHT22;61473;50.834;4.552;2022-07-23T04:36:28;25.10;59.40
73252;DHT22;61473;50.834;4.552;2022-07-23T04:38:54;25.10;59.30
73252;DHT22;61473;50.834;4.552;2022-07-23T04:41:19;25.10;59.30
73252;DHT22;61473;50.834;4.552;2022-07-23T04:43:45;25.10;59.20
73252;DHT22;61473;50.834;4.552;2022-07-23T04:46:11;25.10;59.20
73252;DHT22;61473;50.834;4.552;2022-07-23T04:48:36;25.10;59.20
73252;DHT22;61473;50.834;4.552;2022-07-23T04:51:02;25.10;59.10
73252;DHT22;61473;50.834;4.552;2022-07-23T04:53:28;25.20;59.10
73252;DHT22;61473;50.834;4.552;2022-07-23T04:55:54;25.10;59.00
73252;DHT22;61473;50.834;4.552;2022-07-23T04:58:19;25.10;59.00
73252;DHT22;61473;50.834;4.552;2022-07-23T05:00:46;25.20;59.10
73252;DHT22;61473;50.834;4.552;2022-07-23T05:03:11;25.20;59.10
73252;DHT22;61473;50.834;4.552;2022-07-23T05:05:37;25.20;59.10
73252;DHT22;61473;50.834;4.552;2022-07-23T05:08:03;25.20;59.00
73252;DHT22;61473;50.834;4.552;2022-07-23T05:10:29;25.20;59.00
73252;DHT22;61473;50.834;4.552;2022-07-23T05:12:54;25.20;59.00
73252;DHT22;61473;50.834;4.552;2022-07-23T05:15:20;25.20;59.00
73252;DHT22;61473;50.834;4.552;2022-07-23T05:17:46;25.20;58.90
73252;DHT22;61473;50.834;4.552;2022-07-23T05:20:12;25.20;59.00
73252;DHT22;61473;50.834;4.552;2022-07-23T05:22:39;25.20;58.90
73252;DHT22;61473;50.834;4.552;2022-07-23T05:25:05;25.20;59.00
73252;DHT22;61473;50.834;4.552;2022-07-23T05:27:31;25.20;58.90
73252;DHT22;61473;50.834;4.552;2022-07-23T05:29:57;25.20;58.90
73252;DHT22;61473;50.834;4.552;2022-07-23T05:32:23;25.30;58.90
73252;DHT22;61473;50.834;4.552;2022-07-23T05:34:50;25.30;58.90
73252;DHT22;61473;50.834;4.552;2022-07-23T05:37:16;25.30;58.90
73252;DHT22;61473;50.834;4.552;2022-07-23T05:39:42;25.30;58.90
73252;DHT22;61473;50.834;4.552;2022-07-23T05:42:08;25.30;58.80
73252;DHT22;61473;50.834;4.552;2022-07-23T05:44:34;25.40;58.80
73252;DHT22;61473;50.834;4.552;2022-07-23T05:46:59;25.40;58.80
73252;DHT22;61473;50.834;4.552;2022-07-23T05:49:25;25.30;58.80
73252;DHT22;61473;50.834;4.552;2022-07-23T05:51:51;25.40;58.80
73252;DHT22;61473;50.834;4.552;2022-07-23T05:54:17;25.40;58.80
73252;DHT22;61473;50.834;4.552;2022-07-23T05:56:43;25.40;58.80
73252;DHT22;61473;50.834;4.552;2022-07-23T05:59:08;25.40;58.80
73252;DHT22;61473;50.834;4.552;2022-07-23T06:01:34;25.40;58.80
73252;DHT22;61473;50.834;4.552;2022-07-23T06:04:00;25.40;58.70
73252;DHT22;61473;50.834;4.552;2022-07-23T06:06:26;25.40;58.70
73252;DHT22;61473;50.834;4.552;2022-07-23T06:08:51;25.40;58.70
73252;DHT22;61473;50.834;4.552;2022-07-23T06:11:17;25.40;58.70
73252;DHT22;61473;50.834;4.552;2022-07-23T06:13:43;25.40;58.70
73252;DHT22;61473;50.834;4.552;2022-07-23T06:16:09;25.40;58.70
73252;DHT22;61473;50.834;4.552;2022-07-23T06:18:34;25.40;58.80
73252;DHT22;61473;50.834;4.552;2022-07-23T06:21:00;25.50;58.80
73252;DHT22;61473;50.834;4.552;2022-07-23T06:23:26;25.50;58.80
73252;DHT22;61473;50.834;4.552;2022-07-23T06:25:52;25.50;58.70
73252;DHT22;61473;50.834;4.552;2022-07-23T06:28:17;25.50;58.70
73252;DHT22;61473;50.834;4.552;2022-07-23T06:30:43;25.50;58.70
73252;DHT22;61473;50.834;4.552;2022-07-23T06:33:09;25.60;58.70
73252;DHT22;61473;50.834;4.552;2022-07-23T06:35:35;25.60;58.70
73252;DHT22;61473;50.834;4.552;2022-07-23T06:38:00;25.60;58.70
73252;DHT22;61473;50.834;4.552;2022-07-23T06:40:26;25.60;58.70
73252;DHT22;61473;50.834;4.552;2022-07-23T06:42:52;25.60;58.70
73252;DHT22;61473;50.834;4.552;2022-07-23T06:45:18;25.60;58.60
73252;DHT22;61473;50.834;4.552;2022-07-23T06:47:43;25.70;59.20
73252;DHT22;61473;50.834;4.552;2022-07-23T06:50:09;25.70;58.50
73252;DHT22;61473;50.834;4.552;2022-07-23T06:52:35;25.80;58.40
73252;DHT22;61473;50.834;4.552;2022-07-23T06:55:01;25.80;58.30
73252;DHT22;61473;50.834;4.552;2022-07-23T06:57:26;25.50;56.20
73252;DHT22;61473;50.834;4.552;2022-07-23T06:59:53;25.20;55.80
73252;DHT22;61473;50.834;4.552;2022-07-23T07:02:18;24.90;56.20
73252;DHT22;61473;50.834;4.552;2022-07-23T07:04:44;24.80;56.70
73252;DHT22;61473;50.834;4.552;2022-07-23T07:07:11;24.70;56.90
73252;DHT22;61473;50.834;4.552;2022-07-23T07:09:37;24.50;57.00
73252;DHT22;61473;50.834;4.552;2022-07-23T07:12:03;24.50;57.10
73252;DHT22;61473;50.834;4.552;2022-07-23T07:14:29;24.50;57.20
73252;DHT22;61473;50.834;4.552;2022-07-23T07:16:55;24.50;57.40
73252;DHT22;61473;50.834;4.552;2022-07-23T07:19:20;24.40;57.90
73252;DHT22;61473;50.834;4.552;2022-07-23T07:21:46;24.40;58.20
73252;DHT22;61473;50.834;4.552;2022-07-23T07:24:12;24.50;57.70
73252;DHT22;61473;50.834;4.552;2022-07-23T07:26:37;24.40;58.00
73252;DHT22;61473;50.834;4.552;2022-07-23T07:29:05;24.40;58.10
73252;DHT22;61473;50.834;4.552;2022-07-23T07:31:30;24.30;58.20
73252;DHT22;61473;50.834;4.552;2022-07-23T07:33:56;24.30;58.20
73252;DHT22;61473;50.834;4.552;2022-07-23T07:36:22;24.40;58.10
73252;DHT22;61473;50.834;4.552;2022-07-23T07:38:48;24.20;58.70
73252;DHT22;61473;50.834;4.552;2022-07-23T07:41:14;24.30;58.60
73252;DHT22;61473;50.834;4.552;2022-07-23T07:43:40;24.30;58.80
73252;DHT22;61473;50.834;4.552;2022-07-23T07:46:05;24.50;59.00
73252;DHT22;61473;50.834;4.552;2022-07-23T07:48:36;24.50;58.10
73252;DHT22;61473;50.834;4.552;2022-07-23T07:51:02;24.40;58.10
73252;DHT22;61473;50.834;4.552;2022-07-23T07:53:28;24.40;58.30
73252;DHT22;61473;50.834;4.552;2022-07-23T07:55:54;24.20;58.40
73252;DHT22;61473;50.834;4.552;2022-07-23T07:58:19;24.20;58.60
73252;DHT22;61473;50.834;4.552;2022-07-23T08:00:45;24.20;59.10
73252;DHT22;61473;50.834;4.552;2022-07-23T08:03:11;24.50;58.40
73252;DHT22;61473;50.834;4.552;2022-07-23T08:05:37;24.50;58.60
73252;DHT22;61473;50.834;4.552;2022-07-23T08:08:03;24.50;58.70
73252;DHT22;61473;50.834;4.552;2022-07-23T08:10:29;24.60;58.80
73252;DHT22;61473;50.834;4.552;2022-07-23T08:12:57;24.80;59.40
73252;DHT22;61473;50.834;4.552;2022-07-23T08:15:25;24.80;58.40
73252;DHT22;61473;50.834;4.552;2022-07-23T08:17:52;24.80;58.30
73252;DHT22;61473;50.834;4.552;2022-07-23T08:20:20;24.90;58.50
73252;DHT22;61473;50.834;4.552;2022-07-23T08:22:54;24.90;58.70
73252;DHT22;61473;50.834;4.552;2022-07-23T08:25:22;24.90;57.80
73252;DHT22;61473;50.834;4.552;2022-07-23T08:27:48;24.90;58.70
73252;DHT22;61473;50.834;4.552;2022-07-23T08:30:14;25.00;59.00
73252;DHT22;61473;50.834;4.552;2022-07-23T08:32:53;25.10;58.60
73252;DHT22;61473;50.834;4.552;2022-07-23T08:35:26;25.20;57.80
73252;DHT22;61473;50.834;4.552;2022-07-23T08:37:52;25.20;57.80
73252;DHT22;61473;50.834;4.552;2022-07-23T08:40:18;25.20;58.00
73252;DHT22;61473;50.834;4.552;2022-07-23T08:42:49;25.20;57.60
73252;DHT22;61473;50.834;4.552;2022-07-23T08:45:18;25.20;57.40
73252;DHT22;61473;50.834;4.552;2022-07-23T08:47:44;25.30;57.40
73252;DHT22;61473;50.834;4.552;2022-07-23T08:50:10;25.30;57.80
73252;DHT22;61473;50.834;4.552;2022-07-23T08:52:37;25.40;57.80
73252;DHT22;61473;50.834;4.552;2022-07-23T08:55:03;25.40;57.70
73252;DHT22;61473;50.834;4.552;2022-07-23T08:57:28;25.40;56.60
73252;DHT22;61473;50.834;4.552;2022-07-23T08:59:54;25.40;56.50
73252;DHT22;61473;50.834;4.552;2022-07-23T09:02:20;25.40;57.10
73252;DHT22;61473;50.834;4.552;2022-07-23T09:04:46;25.50;57.60
73252;DHT22;61473;50.834;4.552;2022-07-23T09:07:11;25.50;57.50
73252;DHT22;61473;50.834;4.552;2022-07-23T09:09:37;25.60;57.60
73252;DHT22;61473;50.834;4.552;2022-07-23T09:12:09;25.60;57.40
73252;DHT22;61473;50.834;4.552;2022-07-23T09:14:47;25.60;57.50
73252;DHT22;61473;50.834;4.552;2022-07-23T09:17:15;25.60;58.10
73252;DHT22;61473;50.834;4.552;2022-07-23T09:19:41;25.70;58.10
73252;DHT22;61473;50.834;4.552;2022-07-23T09:22:21;25.70;58.70
73252;DHT22;61473;50.834;4.552;2022-07-23T09:25:17;25.70;56.70
73252;DHT22;61473;50.834;4.552;2022-07-23T09:27:55;25.70;56.90
73252;DHT22;61473;50.834;4.552;2022-07-23T09:30:26;25.70;55.30
73252;DHT22;61473;50.834;4.552;2022-07-23T09:33:12;25.80;58.00
73252;DHT22;61473;50.834;4.552;2022-07-23T09:35:52;25.80;57.70
73252;DHT22;61473;50.834;4.552;2022-07-23T09:38:20;25.80;57.90
73252;DHT22;61473;50.834;4.552;2022-07-23T09:40:47;25.80;57.50
73252;DHT22;61473;50.834;4.552;2022-07-23T09:43:30;25.80;55.10
73252;DHT22;61473;50.834;4.552;2022-07-23T09:46:16;25.80;54.40
73252;DHT22;61473;50.834;4.552;2022-07-23T09:48:42;25.80;55.70
73252;DHT22;61473;50.834;4.552;2022-07-23T09:51:08;25.80;53.70
73252;DHT22;61473;50.834;4.552;2022-07-23T09:53:33;25.70;53.10
73252;DHT22;61473;50.834;4.552;2022-07-23T09:56:00;25.70;53.50
73252;DHT22;61473;50.834;4.552;2022-07-23T09:58:26;25.70;53.50
73252;DHT22;61473;50.834;4.552;2022-07-23T10:00:52;25.80;53.40
73252;DHT22;61473;50.834;4.552;2022-07-23T10:03:19;25.80;52.00
73252;DHT22;61473;50.834;4.552;2022-07-23T10:05:47;25.90;53.30
73252;DHT22;61473;50.834;4.552;2022-07-23T10:08:14;25.90;52.60
73252;DHT22;61473;50.834;4.552;2022-07-23T10:10:42;25.90;53.10
73252;DHT22;61473;50.834;4.552;2022-07-23T10:13:08;25.90;53.20
73252;DHT22;61473;50.834;4.552;2022-07-23T10:15:37;26.00;52.40
73252;DHT22;61473;50.834;4.552;2022-07-23T10:18:05;25.90;50.80
73252;DHT22;61473;50.834;4.552;2022-07-23T10:20:32;25.80;50.10
73252;DHT22;61473;50.834;4.552;2022-07-23T10:23:10;25.90;51.60
73252;DHT22;61473;50.834;4.552;2022-07-23T10:28:33;26.00;50.90
73252;DHT22;61473;50.834;4.552;2022-07-23T10:39:31;26.20;52.40
73252;DHT22;61473;50.834;4.552;2022-07-23T10:42:14;26.20;51.60
73252;DHT22;61473;50.834;4.552;2022-07-23T10:44:48;26.20;51.80
73252;DHT22;61473;50.834;4.552;2022-07-23T10:47:35;26.30;52.50
73252;DHT22;61473;50.834;4.552;2022-07-23T10:50:23;26.30;52.10
73252;DHT22;61473;50.834;4.552;2022-07-23T10:53:10;26.30;50.90
73252;DHT22;61473;50.834;4.552;2022-07-23T10:58:06;26.30;51.40
73252;DHT22;61473;50.834;4.552;2022-07-23T11:00:33;26.30;50.70
73252;DHT22;61473;50.834;4.552;2022-07-23T11:03:01;26.30;50.50
73252;DHT22;61473;50.834;4.552;2022-07-23T11:05:47;26.30;51.50
73252;DHT22;61473;50.834;4.552;2022-07-23T11:08:18;26.40;52.00
73252;DHT22;61473;50.834;4.552;2022-07-23T11:21:40;26.50;50.10
73252;DHT22;61473;50.834;4.552;2022-07-23T11:24:09;26.60;50.00
73252;DHT22;61473;50.834;4.552;2022-07-23T11:26:45;26.60;49.10
73252;DHT22;61473;50.834;4.552;2022-07-23T11:34:47;26.60;49.90
73252;DHT22;61473;50.834;4.552;2022-07-23T11:37:33;26.70;50.30
73252;DHT22;61473;50.834;4.552;2022-07-23T11:40:05;26.70;50.40
73252;DHT22;61473;50.834;4.552;2022-07-23T11:42:32;26.70;50.50
73252;DHT22;61473;50.834;4.552;2022-07-23T11:44:58;26.70;51.30
73252;DHT22;61473;50.834;4.552;2022-07-23T11:47:25;26.70;50.80
73252;DHT22;61473;50.834;4.552;2022-07-23T11:50:00;26.80;51.10
73252;DHT22;61473;50.834;4.552;2022-07-23T11:52:26;26.80;50.70
73252;DHT22;61473;50.834;4.552;2022-07-23T11:55:04;26.80;51.00
73252;DHT22;61473;50.834;4.552;2022-07-23T11:57:33;26.80;51.30
73252;DHT22;61473;50.834;4.552;2022-07-23T12:00:15;26.80;51.40
73252;DHT22;61473;50.834;4.552;2022-07-23T12:02:47;26.90;51.20
73252;DHT22;61473;50.834;4.552;2022-07-23T12:05:18;26.90;51.40
73252;DHT22;61473;50.834;4.552;2022-07-23T12:07:46;26.90;51.50
73252;DHT22;61473;50.834;4.552;2022-07-23T12:10:24;26.90;50.00
73252;DHT22;61473;50.834;4.552;2022-07-23T12:12:52;26.90;50.20
73252;DHT22;61473;50.834;4.552;2022-07-23T12:15:39;26.90;50.80
73252;DHT22;61473;50.834;4.552;2022-07-23T12:18:09;26.90;50.80
73252;DHT22;61473;50.834;4.552;2022-07-23T12:20:37;27.00;50.60
73252;DHT22;61473;50.834;4.552;2022-07-23T12:23:05;27.00;51.10
73252;DHT22;61473;50.834;4.552;2022-07-23T12:25:34;26.90;50.60
73252;DHT22;61473;50.834;4.552;2022-07-23T12:28:07;27.00;50.90
73252;DHT22;61473;50.834;4.552;2022-07-23T12:30:34;27.00;51.10
73252;DHT22;61473;50.834;4.552;2022-07-23T12:33:03;27.00;51.20
73252;DHT22;61473;50.834;4.552;2022-07-23T12:35:42;27.00;50.30
73252;DHT22;61473;50.834;4.552;2022-07-23T12:38:17;27.00;50.80
73252;DHT22;61473;50.834;4.552;2022-07-23T12:43:29;27.00;51.20
73252;DHT22;61473;50.834;4.552;2022-07-23T12:46:02;27.00;51.40
73252;DHT22;61473;50.834;4.552;2022-07-23T12:48:30;27.10;51.20
73252;DHT22;61473;50.834;4.552;2022-07-23T12:56:15;27.10;50.90
73252;DHT22;61473;50.834;4.552;2022-07-23T12:58:46;27.10;51.00
73252;DHT22;61473;50.834;4.552;2022-07-23T13:04:02;27.10;50.10
73252;DHT22;61473;50.834;4.552;2022-07-23T13:06:33;27.10;50.50
73252;DHT22;61473;50.834;4.552;2022-07-23T13:09:00;27.10;50.80
73252;DHT22;61473;50.834;4.552;2022-07-23T13:11:25;27.10;50.60
73252;DHT22;61473;50.834;4.552;2022-07-23T13:13:51;27.10;50.80
73252;DHT22;61473;50.834;4.552;2022-07-23T13:16:17;27.10;51.20
73252;DHT22;61473;50.834;4.552;2022-07-23T13:18:43;27.10;51.30
73252;DHT22;61473;50.834;4.552;2022-07-23T13:21:08;27.10;51.50
73252;DHT22;61473;50.834;4.552;2022-07-23T13:23:34;27.10;51.50
73252;DHT22;61473;50.834;4.552;2022-07-23T13:26:00;27.20;51.60
73252;DHT22;61473;50.834;4.552;2022-07-23T13:28:26;27.20;51.40
73252;DHT22;61473;50.834;4.552;2022-07-23T13:30:52;27.20;51.40
73252;DHT22;61473;50.834;4.552;2022-07-23T13:33:20;27.20;51.60
73252;DHT22;61473;50.834;4.552;2022-07-23T13:35:46;27.20;51.70
73252;DHT22;61473;50.834;4.552;2022-07-23T13:38:12;27.20;51.80
73252;DHT22;61473;50.834;4.552;2022-07-23T13:40:39;27.20;51.80
73252;DHT22;61473;50.834;4.552;2022-07-23T13:43:08;27.20;51.70
73252;DHT22;61473;50.834;4.552;2022-07-23T13:45:34;27.20;52.30
73252;DHT22;61473;50.834;4.552;2022-07-23T13:48:00;27.30;51.40
73252;DHT22;61473;50.834;4.552;2022-07-23T13:50:27;27.20;51.20
73252;DHT22;61473;50.834;4.552;2022-07-23T13:52:52;27.30;51.20
73252;DHT22;61473;50.834;4.552;2022-07-23T13:55:18;27.30;51.30
73252;DHT22;61473;50.834;4.552;2022-07-23T13:57:44;27.30;51.40
73252;DHT22;61473;50.834;4.552;2022-07-23T14:00:13;27.30;51.50
73252;DHT22;61473;50.834;4.552;2022-07-23T14:02:40;27.30;51.60
73252;DHT22;61473;50.834;4.552;2022-07-23T14:05:08;27.30;51.80
73252;DHT22;61473;50.834;4.552;2022-07-23T14:07:35;27.30;51.90
73252;DHT22;61473;50.834;4.552;2022-07-23T14:10:02;27.30;52.00
73252;DHT22;61473;50.834;4.552;2022-07-23T14:12:28;27.30;51.80
73252;DHT22;61473;50.834;4.552;2022-07-23T14:14:54;27.30;51.80
73252;DHT22;61473;50.834;4.552;2022-07-23T14:17:20;27.40;51.80
73252;DHT22;61473;50.834;4.552;2022-07-23T14:19:46;27.30;51.70
73252;DHT22;61473;50.834;4.552;2022-07-23T14:22:11;27.30;51.80
73252;DHT22;61473;50.834;4.552;2022-07-23T14:24:37;27.30;52.10
73252;DHT22;61473;50.834;4.552;2022-07-23T14:27:04;27.40;52.00
73252;DHT22;61473;50.834;4.552;2022-07-23T14:29:30;27.30;52.00
73252;DHT22;61473;50.834;4.552;2022-07-23T14:31:57;27.30;52.10
73252;DHT22;61473;50.834;4.552;2022-07-23T14:34:23;27.30;52.10
73252;DHT22;61473;50.834;4.552;2022-07-23T14:36:49;27.30;52.10
73252;DHT22;61473;50.834;4.552;2022-07-23T14:39:15;27.40;52.20
73252;DHT22;61473;50.834;4.552;2022-07-23T14:41:40;27.30;52.10
73252;DHT22;61473;50.834;4.552;2022-07-23T14:44:06;27.40;51.90
73252;DHT22;61473;50.834;4.552;2022-07-23T14:46:32;27.40;51.90
73252;DHT22;61473;50.834;4.552;2022-07-23T14:48:57;27.40;52.00
73252;DHT22;61473;50.834;4.552;2022-07-23T14:51:23;27.40;52.10
73252;DHT22;61473;50.834;4.552;2022-07-23T14:53:49;27.40;52.10
73252;DHT22;61473;50.834;4.552;2022-07-23T14:56:14;27.40;52.20
73252;DHT22;61473;50.834;4.552;2022-07-23T14:58:40;27.40;52.30
73252;DHT22;61473;50.834;4.552;2022-07-23T15:01:06;27.30;52.50
73252;DHT22;61473;50.834;4.552;2022-07-23T15:03:32;27.40;52.40
73252;DHT22;61473;50.834;4.552;2022-07-23T15:05:58;27.40;52.50
73252;DHT22;61473;50.834;4.552;2022-07-23T15:08:24;27.40;52.60
73252;DHT22;61473;50.834;4.552;2022-07-23T15:10:51;27.40;52.60
73252;DHT22;61473;50.834;4.552;2022-07-23T15:13:17;27.40;53.10
73252;DHT22;61473;50.834;4.552;2022-07-23T15:15:43;27.40;52.40
73252;DHT22;61473;50.834;4.552;2022-07-23T15:18:10;27.40;52.40
73252;DHT22;61473;50.834;4.552;2022-07-23T15:20:35;27.40;52.30
73252;DHT22;61473;50.834;4.552;2022-07-23T15:23:03;27.40;52.30
73252;DHT22;61473;50.834;4.552;2022-07-23T15:25:29;27.40;52.10
73252;DHT22;61473;50.834;4.552;2022-07-23T15:27:57;27.40;51.80
73252;DHT22;61473;50.834;4.552;2022-07-23T15:30:24;27.40;51.90
73252;DHT22;61473;50.834;4.552;2022-07-23T15:32:50;27.40;51.90
73252;DHT22;61473;50.834;4.552;2022-07-23T15:35:16;27.40;51.80
73252;DHT22;61473;50.834;4.552;2022-07-23T15:37:42;27.40;51.70
73252;DHT22;61473;50.834;4.552;2022-07-23T15:40:08;27.40;52.30
73252;DHT22;61473;50.834;4.552;2022-07-23T15:42:35;27.40;51.20
73252;DHT22;61473;50.834;4.552;2022-07-23T15:45:01;27.40;51.60
73252;DHT22;61473;50.834;4.552;2022-07-23T15:47:27;27.40;51.70
73252;DHT22;61473;50.834;4.552;2022-07-23T15:49:52;27.40;52.30
73252;DHT22;61473;50.834;4.552;2022-07-23T15:52:18;27.40;51.80
73252;DHT22;61473;50.834;4.552;2022-07-23T15:54:44;27.40;51.90
73252;DHT22;61473;50.834;4.552;2022-07-23T15:57:10;27.40;52.00
73252;DHT22;61473;50.834;4.552;2022-07-23T15:59:36;27.40;52.10
73252;DHT22;61473;50.834;4.552;2022-07-23T16:02:02;27.40;52.00
73252;DHT22;61473;50.834;4.552;2022-07-23T16:04:28;27.40;51.70
73252;DHT22;61473;50.834;4.552;2022-07-23T16:06:54;27.40;51.70
73252;DHT22;61473;50.834;4.552;2022-07-23T16:09:20;27.40;51.80
73252;DHT22;61473;50.834;4.552;2022-07-23T16:11:45;27.40;51.90